createdAt,value
2023-04-03T00:01:39.733Z,4.10
2023-04-03T00:04:08.498Z,4.30
2023-04-03T00:06:37.160Z,4.40
2023-04-03T00:09:06.382Z,4.60
2023-04-03T00:11:36.010Z,4.30
2023-04-03T00:14:04.563Z,4.10
2023-04-03T00:16:33.145Z,4.70
2023-04-03T00:19:01.865Z,4.40
2023-04-03T00:21:30.939Z,4.60
2023-04-03T00:23:59.904Z,3.90
2023-04-03T00:26:28.563Z,4.50
2023-04-03T00:28:57.611Z,4.40
2023-04-03T00:31:26.347Z,4.20
2023-04-03T00:33:55.456Z,4.10
2023-04-03T00:36:25.195Z,4.10
2023-04-03T00:38:53.836Z,4.50
2023-04-03T00:41:22.860Z,4.80
2023-04-03T00:43:51.482Z,4.50
2023-04-03T00:46:20.174Z,3.90
2023-04-03T00:48:50.462Z,3.90
2023-04-03T00:51:28.112Z,4.10
2023-04-03T00:54:02.122Z,3.80
2023-04-03T00:56:32.629Z,4.10
2023-04-03T00:59:09.502Z,4.90
2023-04-03T01:01:39.316Z,4.20
2023-04-03T01:04:40.594Z,3.60
2023-04-03T01:07:22.293Z,4.00
2023-04-03T01:09:57.768Z,4.10
2023-04-03T01:12:33.405Z,4.00
2023-04-03T01:15:26.806Z,4.10
2023-04-03T01:17:58.739Z,3.90
2023-04-03T01:20:33.416Z,4.10
2023-04-03T01:23:11.248Z,3.80
2023-04-03T01:25:47.451Z,4.40
2023-04-03T01:28:28.568Z,4.60
2023-04-03T01:31:21.537Z,4.70
2023-04-03T01:33:50.978Z,4.30
2023-04-03T01:38:53.290Z,4.80
2023-04-03T01:41:22.664Z,4.60
2023-04-03T01:43:51.977Z,3.60
2023-04-03T01:46:21.406Z,4.00
2023-04-03T01:48:50.208Z,4.50
2023-04-03T01:51:18.901Z,4.30
2023-04-03T01:53:47.713Z,4.20
2023-04-03T01:56:16.705Z,4.30
2023-04-03T01:58:45.447Z,4.20
2023-04-03T02:01:14.112Z,4.30
2023-04-03T02:03:43.096Z,4.00
2023-04-03T02:06:12.873Z,4.30
2023-04-03T02:08:42.918Z,4.70
2023-04-03T02:11:11.565Z,4.00
2023-04-03T02:13:40.376Z,4.20
2023-04-03T02:16:11.541Z,4.20
2023-04-03T02:18:40.329Z,4.20
2023-04-03T02:21:08.999Z,4.50
2023-04-03T02:23:38.431Z,5.00
2023-04-03T02:26:14.285Z,4.60
2023-04-03T02:28:43.844Z,4.50
2023-04-03T02:31:12.760Z,4.60
2023-04-03T02:33:42.572Z,4.70
2023-04-03T02:36:12.193Z,4.40
2023-04-03T02:38:43.164Z,4.10
2023-04-03T02:41:13.793Z,4.30
2023-04-03T02:43:42.497Z,4.00
2023-04-03T02:46:11.211Z,3.80
2023-04-03T02:48:39.992Z,4.00
2023-04-03T02:51:08.622Z,3.20
2023-04-03T02:53:37.311Z,3.40
2023-04-03T02:56:10.891Z,3.30
2023-04-03T02:58:39.761Z,3.10
2023-04-03T03:01:09.061Z,3.00
2023-04-03T03:03:38.258Z,3.10
2023-04-03T03:06:13.364Z,2.90
2023-04-03T03:08:42.964Z,3.80
2023-04-03T03:11:11.892Z,3.50
2023-04-03T03:13:40.832Z,3.50
2023-04-03T03:16:10.124Z,4.20
2023-04-03T03:18:38.819Z,3.80
2023-04-03T03:21:07.734Z,3.80
2023-04-03T03:23:37.643Z,4.40
2023-04-03T03:26:10.066Z,6.00
2023-04-03T03:28:40.385Z,6.50
2023-04-03T03:31:11.620Z,7.30
2023-04-03T03:33:40.723Z,7.90
2023-04-03T03:36:09.548Z,7.40
2023-04-03T03:38:39.112Z,8.00
2023-04-03T03:43:36.993Z,8.70
2023-04-03T03:46:07.063Z,8.00
2023-04-03T03:48:35.926Z,9.30
2023-04-03T03:51:04.910Z,10.40
2023-04-03T03:53:36.340Z,10.40
2023-04-03T03:56:08.502Z,12.30
2023-04-03T03:58:38.556Z,11.30
2023-04-03T04:01:08.322Z,10.00
2023-04-03T04:03:42.064Z,9.80
2023-04-03T04:06:11.611Z,11.10
2023-04-03T04:08:40.301Z,10.30
2023-04-03T04:11:10.028Z,10.40
2023-04-03T04:13:38.789Z,10.40
2023-04-03T04:16:09.101Z,10.90
2023-04-03T04:18:37.761Z,10.40
2023-04-03T04:21:06.456Z,10.10
2023-04-03T04:23:35.288Z,9.90
2023-04-03T04:26:04.478Z,10.70
2023-04-03T04:28:35.708Z,9.30
2023-04-03T04:31:04.835Z,9.10
2023-04-03T04:33:33.747Z,9.30
2023-04-03T04:36:09.057Z,9.40
2023-04-03T04:38:39.861Z,8.20
2023-04-03T04:41:09.621Z,8.90
2023-04-03T04:46:10.568Z,7.70
2023-04-03T04:48:43.134Z,7.90
2023-04-03T04:51:12.821Z,7.90
2023-04-03T04:53:42.012Z,8.20
2023-04-03T04:56:11.604Z,7.00
2023-04-03T04:58:49.031Z,7.50
2023-04-03T05:01:18.348Z,7.80
2023-04-03T05:04:32.777Z,8.10
2023-04-03T05:07:06.086Z,7.80
2023-04-03T05:09:36.812Z,7.90
2023-04-03T05:12:06.347Z,7.20
2023-04-03T05:14:39.782Z,7.20
2023-04-03T05:17:09.634Z,7.70
2023-04-03T05:19:40.527Z,7.70
2023-04-03T05:22:10.513Z,8.90
2023-04-03T05:24:39.489Z,8.30
2023-04-03T05:27:09.095Z,8.00
2023-04-03T05:29:40.191Z,8.20
2023-04-03T05:32:08.996Z,8.70
2023-04-03T05:34:38.702Z,7.70
2023-04-03T05:37:09.314Z,7.40
2023-04-03T05:39:41.595Z,7.00
2023-04-03T05:42:12.797Z,7.80
2023-04-03T05:44:42.123Z,7.70
2023-04-03T05:47:11.749Z,8.40
2023-04-03T05:49:42.111Z,7.70
2023-04-03T05:52:36.698Z,8.00
2023-04-03T05:55:06.132Z,6.90
2023-04-03T05:57:43.284Z,7.80
2023-04-03T06:00:18.915Z,8.20
2023-04-03T06:02:51.686Z,7.60
2023-04-03T06:05:23.929Z,6.90
2023-04-03T06:07:52.899Z,7.10
2023-04-03T06:10:25.073Z,5.80
2023-04-03T06:12:57.365Z,5.40
2023-04-03T06:15:26.135Z,4.90
2023-04-03T06:17:54.885Z,4.70
2023-04-03T06:20:28.753Z,4.70
2023-04-03T06:22:58.454Z,4.70
2023-04-03T06:25:27.900Z,4.00
2023-04-03T06:27:59.518Z,3.90
2023-04-03T06:30:28.669Z,3.60
2023-04-03T06:32:57.893Z,4.00
2023-04-03T06:35:27.877Z,3.60
2023-04-03T06:37:56.674Z,4.40
2023-04-03T06:40:27.671Z,4.10
2023-04-03T06:42:56.379Z,3.40
2023-04-03T06:45:26.772Z,3.80
2023-04-03T06:47:55.639Z,3.00
2023-04-03T06:50:24.714Z,3.00
2023-04-03T06:52:53.424Z,3.10
2023-04-03T06:55:23.119Z,3.10
2023-04-03T06:57:51.977Z,2.90
2023-04-03T07:00:22.214Z,3.00
2023-04-03T07:02:52.890Z,2.90
2023-04-03T07:05:23.913Z,3.00
2023-04-03T07:07:53.064Z,3.00
2023-04-03T07:10:21.776Z,2.90
2023-04-03T07:12:50.509Z,2.70
2023-04-03T07:15:19.429Z,2.80
2023-04-03T07:17:48.106Z,2.70
2023-04-03T07:20:17.069Z,2.40
2023-04-03T07:22:45.787Z,2.70
2023-04-03T07:25:14.507Z,3.00
2023-04-03T07:27:43.748Z,3.10
2023-04-03T07:30:15.334Z,2.80
2023-04-03T07:32:44.105Z,2.80
2023-04-03T07:35:13.216Z,3.10
2023-04-03T07:37:42.319Z,2.70
2023-04-03T07:40:13.269Z,2.70
2023-04-03T07:42:42.163Z,2.70
2023-04-03T07:45:13.611Z,2.50
2023-04-03T07:47:54.567Z,2.50
2023-04-03T07:50:24.174Z,2.70
2023-04-03T07:52:53.887Z,2.60
2023-04-03T07:55:22.682Z,2.60
2023-04-03T07:57:52.195Z,2.60
2023-04-03T08:00:21.426Z,3.30
2023-04-03T08:02:52.973Z,3.00
2023-04-03T08:05:22.939Z,3.10
2023-04-03T08:07:51.569Z,2.70
2023-04-03T08:10:20.811Z,2.00
2023-04-03T08:12:49.745Z,2.00
2023-04-03T08:15:21.792Z,2.20
2023-04-03T08:17:52.136Z,2.70
2023-04-03T08:20:22.070Z,2.50
2023-04-03T08:22:51.046Z,2.00
2023-04-03T08:25:19.872Z,2.20
2023-04-03T08:27:48.576Z,2.20
2023-04-03T08:30:18.890Z,1.80
2023-04-03T08:32:48.190Z,1.60
2023-04-03T08:35:16.964Z,1.90
2023-04-03T08:37:45.656Z,1.80
2023-04-03T08:40:18.185Z,1.70
2023-04-03T08:42:58.889Z,1.70
2023-04-03T08:45:51.681Z,1.60
2023-04-03T08:48:34.968Z,1.90
2023-04-03T08:51:16.851Z,1.90
2023-04-03T08:54:00.236Z,2.10
2023-04-03T08:56:34.622Z,2.10
2023-04-03T08:59:14.396Z,2.30
2023-04-03T09:01:44.791Z,2.90
2023-04-03T09:04:19.346Z,3.50
2023-04-03T09:07:01.741Z,3.70
2023-04-03T09:09:42.259Z,3.00
2023-04-03T09:13:25.817Z,2.70
2023-04-03T09:15:57.268Z,2.00
2023-04-03T09:18:33.934Z,2.20
2023-04-03T09:21:33.122Z,2.50
2023-04-03T09:24:16.335Z,1.90
2023-04-03T09:27:03.647Z,1.60
2023-04-03T09:29:34.191Z,1.30
2023-04-03T09:32:19.901Z,1.40
2023-04-03T09:34:53.470Z,1.50
2023-04-03T09:37:45.148Z,1.30
2023-04-03T09:40:43.442Z,1.30
2023-04-03T09:43:34.155Z,1.30
2023-04-03T09:46:32.388Z,1.30
2023-04-03T09:49:09.447Z,1.20
2023-04-03T09:51:39.540Z,1.30
2023-04-03T09:54:40.796Z,1.00
2023-04-03T09:57:14.487Z,1.00
2023-04-03T10:00:00.821Z,1.20
2023-04-03T10:02:43.583Z,0.90
2023-04-03T10:05:26.875Z,0.80
2023-04-03T10:08:26.742Z,0.70
2023-04-03T10:11:20.216Z,0.90
2023-04-03T10:14:18.234Z,0.70
2023-04-03T10:17:19.926Z,1.00
2023-04-03T10:19:55.266Z,0.80
2023-04-03T10:22:56.523Z,1.00
2023-04-03T10:25:41.104Z,0.90
2023-04-03T10:28:30.546Z,0.80
2023-04-03T10:31:52.323Z,0.90
2023-04-03T10:34:38.704Z,0.90
2023-04-03T10:37:38.187Z,0.90
2023-04-03T10:40:41.220Z,1.00
2023-04-03T10:43:36.920Z,0.80
2023-04-03T10:46:17.979Z,1.00
2023-04-03T10:49:16.451Z,1.00
2023-04-03T10:51:49.940Z,1.00
2023-04-03T10:54:44.295Z,1.30
2023-04-03T10:57:14.190Z,0.90
2023-04-03T10:59:48.079Z,1.00
2023-04-03T11:02:34.025Z,0.90
2023-04-03T11:05:23.251Z,0.90
2023-04-03T11:07:57.130Z,0.80
2023-04-03T11:10:47.062Z,1.00
2023-04-03T11:13:38.699Z,0.90
2023-04-03T11:16:09.794Z,0.80
2023-04-03T11:18:56.120Z,0.90
2023-04-03T11:21:40.688Z,1.20
2023-04-03T11:24:23.948Z,1.20
2023-04-03T11:26:56.437Z,1.10
2023-04-03T11:29:38.745Z,1.10
2023-04-03T11:32:44.501Z,0.90
2023-04-03T11:35:14.815Z,1.00
2023-04-03T11:37:51.415Z,1.20
2023-04-03T11:40:30.576Z,2.40
2023-04-03T11:43:15.193Z,2.30
2023-04-03T11:46:00.638Z,2.90
2023-04-03T11:48:30.854Z,2.40
2023-04-03T11:51:13.487Z,2.40
2023-04-03T11:53:43.206Z,2.20
2023-04-03T11:56:27.234Z,2.50
2023-04-03T11:59:14.809Z,2.00
2023-04-03T12:01:57.852Z,2.40
2023-04-03T12:04:29.015Z,1.90
2023-04-03T12:07:29.781Z,2.50
2023-04-03T12:10:01.745Z,2.30
2023-04-03T12:12:39.018Z,2.30
2023-04-03T12:15:24.512Z,2.40
2023-04-03T12:17:59.922Z,2.20
2023-04-03T12:20:58.606Z,2.50
2023-04-03T12:23:32.148Z,2.80
2023-04-03T12:26:32.375Z,2.30
2023-04-03T12:29:30.137Z,2.90
2023-04-03T12:32:05.106Z,2.20
2023-04-03T12:34:58.492Z,2.40
2023-04-03T12:38:14.913Z,2.60
2023-04-03T12:40:43.887Z,2.60
2023-04-03T12:43:40.103Z,3.20
2023-04-03T12:46:09.333Z,2.90
2023-04-03T12:48:56.242Z,2.90
2023-04-03T12:51:48.107Z,2.60
2023-04-03T12:54:39.158Z,2.20
2023-04-03T12:57:20.251Z,1.90
2023-04-03T12:59:50.213Z,1.70
2023-04-03T13:02:32.039Z,1.50
2023-04-03T13:05:18.170Z,1.40
2023-04-03T13:07:58.381Z,1.60
2023-04-03T13:10:30.139Z,2.00
2023-04-03T13:13:10.960Z,1.90
2023-04-03T13:15:47.119Z,2.00
2023-04-03T13:18:36.494Z,1.80
2023-04-03T13:21:22.641Z,1.90
2023-04-03T13:24:03.556Z,1.60
2023-04-03T13:26:40.651Z,1.40
2023-04-03T13:29:30.874Z,1.50
2023-04-03T13:32:02.709Z,1.50
2023-04-03T13:34:45.902Z,1.60
2023-04-03T13:37:32.682Z,1.30
2023-04-03T13:40:07.487Z,1.20
2023-04-03T13:42:42.400Z,1.60
2023-04-03T13:45:30.840Z,1.30
2023-04-03T13:48:24.054Z,1.40
2023-04-03T13:51:02.458Z,1.40
2023-04-03T13:53:34.823Z,1.40
2023-04-03T13:56:38.894Z,1.40
2023-04-03T13:59:25.452Z,1.40
2023-04-03T14:02:17.719Z,1.40
2023-04-03T14:04:51.979Z,1.30
2023-04-03T14:07:22.599Z,1.80
2023-04-03T14:09:51.826Z,1.40
2023-04-03T14:12:40.848Z,1.50
2023-04-03T14:15:21.649Z,1.30
2023-04-03T14:17:52.785Z,1.30
2023-04-03T14:20:26.912Z,1.30
2023-04-03T14:22:56.077Z,1.10
2023-04-03T14:25:27.916Z,1.40
2023-04-03T14:28:01.595Z,1.70
2023-04-03T14:30:34.241Z,1.30
2023-04-03T14:33:03.877Z,1.30
2023-04-03T14:38:01.324Z,1.20
2023-04-03T14:40:30.085Z,1.30
2023-04-03T14:42:59.437Z,1.30
2023-04-03T14:45:28.369Z,1.30
2023-04-03T14:47:58.283Z,1.50
2023-04-03T14:50:28.786Z,1.10
2023-04-03T14:53:00.236Z,1.40
2023-04-03T14:55:29.077Z,1.40
2023-04-03T14:57:57.731Z,1.50
2023-04-03T15:00:26.322Z,1.50
2023-04-03T15:02:55.095Z,1.40
2023-04-03T15:05:23.896Z,1.60
2023-04-03T15:08:01.324Z,1.60
2023-04-03T15:10:32.238Z,1.40
2023-04-03T15:13:01.790Z,1.80
2023-04-03T15:18:03.641Z,1.20
2023-04-03T15:20:34.452Z,1.30
2023-04-03T15:23:03.244Z,1.30
2023-04-03T15:25:33.645Z,1.20
2023-04-03T15:28:02.549Z,1.10
2023-04-03T15:30:31.213Z,1.20
2023-04-03T15:32:59.894Z,1.30
2023-04-03T15:35:28.497Z,1.10
2023-04-03T15:37:57.525Z,1.20
2023-04-03T15:40:26.892Z,1.20
2023-04-03T15:42:55.794Z,1.30
2023-04-03T15:45:24.541Z,1.20
2023-04-03T15:47:53.280Z,1.30
2023-04-03T15:50:24.393Z,1.30
2023-04-03T15:52:56.253Z,1.10
2023-04-03T15:55:32.282Z,1.10
2023-04-03T15:58:01.307Z,1.60
2023-04-03T16:00:30.538Z,1.40
2023-04-03T16:03:09.930Z,1.70
2023-04-03T16:08:09.060Z,1.00
2023-04-03T16:10:38.905Z,1.20
2023-04-03T16:13:07.933Z,1.90
2023-04-03T16:15:37.197Z,1.30
2023-04-03T16:18:06.904Z,0.90
2023-04-03T16:23:04.480Z,1.40
2023-04-03T16:25:33.242Z,1.50
2023-04-03T16:28:02.243Z,1.50
2023-04-03T16:30:31.124Z,1.40
2023-04-03T16:32:59.859Z,1.30
2023-04-03T16:35:29.273Z,1.50
2023-04-03T16:37:58.489Z,1.60
2023-04-03T16:40:27.153Z,1.60
2023-04-03T16:42:56.460Z,1.40
2023-04-03T16:45:24.955Z,1.60
2023-04-03T16:47:53.391Z,1.60
2023-04-03T16:50:22.279Z,1.80
2023-04-03T16:52:51.489Z,1.70
2023-04-03T16:55:21.889Z,1.60
2023-04-03T17:00:20.246Z,1.50
2023-04-03T17:02:49.408Z,1.50
2023-04-03T17:05:18.649Z,1.30
2023-04-03T17:07:47.133Z,1.20
2023-04-03T17:10:16.241Z,1.10
2023-04-03T17:12:44.948Z,1.40
2023-04-03T17:15:14.228Z,1.20
2023-04-03T17:17:43.253Z,1.40
2023-04-03T17:20:12.314Z,1.40
2023-04-03T17:22:41.177Z,1.50
2023-04-03T17:25:11.214Z,1.60
2023-04-03T17:27:40.580Z,1.80
2023-04-03T17:30:10.322Z,1.10
2023-04-03T17:32:39.383Z,1.20
2023-04-03T17:35:11.638Z,1.50
2023-04-03T17:37:41.698Z,1.90
2023-04-03T17:40:10.793Z,1.70
2023-04-03T17:42:40.081Z,1.80
2023-04-03T17:45:09.534Z,1.60
2023-04-03T17:47:38.809Z,1.40
2023-04-03T17:50:08.237Z,1.20
2023-04-03T17:52:37.572Z,1.30
2023-04-03T17:55:06.897Z,1.50
2023-04-03T17:57:35.748Z,1.50
2023-04-03T18:00:05.757Z,1.30
2023-04-03T18:02:42.535Z,1.30
2023-04-03T18:05:11.693Z,1.20
2023-04-03T18:07:41.668Z,1.30
2023-04-03T18:10:11.489Z,1.30
2023-04-03T18:12:42.738Z,1.40
2023-04-03T18:15:12.096Z,1.30
2023-04-03T18:17:40.927Z,1.30
2023-04-03T18:20:11.817Z,1.50
2023-04-03T18:22:41.672Z,1.60
2023-04-03T18:25:11.875Z,1.60
2023-04-03T18:27:42.080Z,1.40
2023-04-03T18:30:15.584Z,1.40
2023-04-03T18:32:44.340Z,1.20
2023-04-03T18:35:14.181Z,1.20
2023-04-03T18:37:43.501Z,1.50
2023-04-03T18:40:13.385Z,1.40
2023-04-03T18:42:43.013Z,1.50
2023-04-03T18:47:42.238Z,1.50
2023-04-03T18:50:12.028Z,1.30
2023-04-03T18:52:41.013Z,1.40
2023-04-03T18:55:14.773Z,1.60
2023-04-03T18:57:43.692Z,1.50
2023-04-03T19:00:15.947Z,1.40
2023-04-03T19:02:46.230Z,1.60
2023-04-03T19:05:17.240Z,1.60
2023-04-03T19:07:47.455Z,1.50
2023-04-03T19:10:17.814Z,1.40
2023-04-03T19:12:50.347Z,1.30
2023-04-03T19:15:22.028Z,1.40
2023-04-03T19:17:52.072Z,1.40
2023-04-03T19:20:21.106Z,1.50
2023-04-03T19:22:49.847Z,1.50
2023-04-03T19:25:20.250Z,1.50
2023-04-03T19:27:50.589Z,1.40
2023-04-03T19:30:19.683Z,1.50
2023-04-03T19:32:48.969Z,1.20
2023-04-03T19:35:18.231Z,1.40
2023-04-03T19:40:20.820Z,1.50
2023-04-03T19:42:49.903Z,1.50
2023-04-03T19:45:20.188Z,1.60
2023-04-03T19:47:51.099Z,1.50
2023-04-03T19:50:19.831Z,1.30
2023-04-03T19:52:49.356Z,1.40
2023-04-03T19:55:18.581Z,1.70
2023-04-03T19:57:47.213Z,1.30
2023-04-03T20:00:16.945Z,1.50
2023-04-03T20:02:45.502Z,1.30
2023-04-03T20:05:14.271Z,1.30
2023-04-03T20:07:43.273Z,1.70
2023-04-03T20:10:12.573Z,1.60
2023-04-03T20:12:41.420Z,1.80
2023-04-03T20:15:11.490Z,1.80
2023-04-03T20:17:40.141Z,1.70
2023-04-03T20:20:09.630Z,1.70
2023-04-03T20:22:39.883Z,1.80
2023-04-03T20:25:15.316Z,1.80
2023-04-03T20:27:46.112Z,1.60
2023-04-03T20:30:15.117Z,2.20
2023-04-03T20:32:43.818Z,1.50
2023-04-03T20:35:12.429Z,2.00
2023-04-03T20:37:43.207Z,1.60
2023-04-03T20:40:12.691Z,2.20
2023-04-03T20:42:41.451Z,1.90
2023-04-03T20:45:11.671Z,2.10
2023-04-03T20:47:40.475Z,2.20
2023-04-03T20:50:09.851Z,2.10
2023-04-03T20:52:38.562Z,1.80
2023-04-03T20:55:07.714Z,2.20
2023-04-03T20:57:36.884Z,2.30
2023-04-03T21:00:07.539Z,2.20
2023-04-03T21:02:36.525Z,2.30
2023-04-03T21:05:06.001Z,2.00
2023-04-03T21:08:32.278Z,2.20
2023-04-03T21:11:57.362Z,2.10
2023-04-03T21:15:22.189Z,2.50
2023-04-03T21:18:11.147Z,2.80
2023-04-03T21:20:40.853Z,2.40
2023-04-03T21:23:09.848Z,2.50
2023-04-03T21:25:38.631Z,2.50
2023-04-03T21:28:07.456Z,2.40
2023-04-03T21:30:35.993Z,2.20
2023-04-03T21:33:05.184Z,2.60
2023-04-03T21:35:33.920Z,2.30
2023-04-03T21:38:02.652Z,2.30
2023-04-03T21:40:31.961Z,2.30
2023-04-03T21:43:00.608Z,2.80
2023-04-03T21:45:29.824Z,2.30
2023-04-03T21:47:59.358Z,2.20
2023-04-03T21:50:28.057Z,2.10
2023-04-03T21:52:58.080Z,2.10
2023-04-03T21:55:27.129Z,2.40
2023-04-03T21:57:55.787Z,2.30
2023-04-03T22:00:25.647Z,2.30
2023-04-03T22:03:07.643Z,2.40
2023-04-03T22:05:38.934Z,2.30
2023-04-03T22:08:07.821Z,2.10
2023-04-03T22:10:36.591Z,2.40
2023-04-03T22:13:05.306Z,2.30
2023-04-03T22:15:43.155Z,2.40
2023-04-03T22:18:11.852Z,2.70
2023-04-03T22:20:44.082Z,2.50
2023-04-03T22:23:12.727Z,2.50
2023-04-03T22:25:41.747Z,2.40
2023-04-03T22:28:10.185Z,2.30
2023-04-03T22:30:39.884Z,2.30
2023-04-03T22:33:09.094Z,2.50
2023-04-03T22:35:46.275Z,2.20
2023-04-03T22:38:15.605Z,2.90
2023-04-03T22:40:47.963Z,2.90
2023-04-03T22:43:16.568Z,2.10
2023-04-03T22:45:49.311Z,2.80
2023-04-03T22:48:18.866Z,2.40
2023-04-03T22:50:48.896Z,2.30
2023-04-03T22:53:19.645Z,2.50
2023-04-03T22:56:02.049Z,3.00
2023-04-03T22:58:30.904Z,2.60
2023-04-03T23:01:11.352Z,2.50
2023-04-03T23:03:42.772Z,2.40
2023-04-03T23:06:12.937Z,2.30
2023-04-03T23:08:42.718Z,2.50
2023-04-03T23:11:11.751Z,2.70
2023-04-03T23:13:40.398Z,2.70
2023-04-03T23:16:09.134Z,3.10
2023-04-03T23:18:40.192Z,2.70
2023-04-03T23:21:09.598Z,2.90
2023-04-03T23:23:38.425Z,3.30
2023-04-03T23:26:09.323Z,2.90
2023-04-03T23:28:37.957Z,2.80
2023-04-03T23:31:10.487Z,2.90
2023-04-03T23:33:39.647Z,2.50
2023-04-03T23:36:09.150Z,2.80
2023-04-03T23:41:06.858Z,2.80
2023-04-03T23:43:36.338Z,3.10
2023-04-03T23:48:33.843Z,2.80
2023-04-03T23:51:02.740Z,3.20
2023-04-03T23:53:31.338Z,2.90
2023-04-03T23:55:59.926Z,3.10
2023-04-03T23:58:28.686Z,3.40
